Wetterdaten: Dienstag, 21.12.2010
Datum Zeit Temp. A. Feuchte A. Luftdruck Regen Wind Richtung Richtung Sonnenschein UV Solar Windben
21.12.2010 00:00 -12,1 C 84 % 1007,3 hPa 0,0 mm 0,0 km/h (0 Bft) N 0 0 min 0 UV-I 0 W/m 0,0 km/h (0 Bft)
21.12.2010 00:10 -12,2 C 85 % 1007,1 hPa 0,0 mm 0,0 km/h (0 Bft) N 0 0 min 0 UV-I 0 W/m 0,0 km/h (0 Bft)
21.12.2010 00:20 -12,2 C 85 % 1006,9 hPa 0,0 mm 0,0 km/h (0 Bft) N 0 0 min 0 UV-I 0 W/m 0,0 km/h (0 Bft)
21.12.2010 00:30 -12,3 C 85 % 1006,8 hPa 0,0 mm 0,0 km/h (0 Bft) N 0 0 min 0 UV-I 0 W/m 0,0 km/h (0 Bft)
21.12.2010 00:40 -12,4 C 85 % 1006,9 hPa 0,0 mm 0,0 km/h (0 Bft) N 0 0 min 0 UV-I 0 W/m 0,0 km/h (0 Bft)
21.12.2010 00:50 -12,5 C 85 % 1006,7 hPa 0,0 mm 0,0 km/h (0 Bft) N 0 0 min 0 UV-I 0 W/m 0,0 km/h (0 Bft)
21.12.2010 01:00 -12,6 C 85 % 1006,6 hPa 0,0 mm 0,0 km/h (0 Bft) N 0 0 min 0 UV-I 0 W/m 0,0 km/h (0 Bft)
21.12.2010 01:10 -12,6 C 85 % 1006,5 hPa 0,0 mm 0,0 km/h (0 Bft) N 0 0 min 0 UV-I 0 W/m 0,0 km/h (0 Bft)
21.12.2010 01:20 -12,6 C 85 % 1006,5 hPa 0,0 mm 0,0 km/h (0 Bft) N 0 0 min 0 UV-I 0 W/m 0,0 km/h (0 Bft)
21.12.2010 01:30 -12,6 C 85 % 1006,4 hPa 0,0 mm 0,0 km/h (0 Bft) N 0 0 min 0 UV-I 0 W/m 0,0 km/h (0 Bft)
21.12.2010 01:40 -12,6 C 85 % 1006,2 hPa 0,0 mm 0,0 km/h (0 Bft) N 0 0 min 0 UV-I 0 W/m 0,0 km/h (0 Bft)
21.12.2010 01:50 -12,6 C 86 % 1006,3 hPa 0,0 mm 0,0 km/h (0 Bft) N 0 0 min 0 UV-I 0 W/m 0,0 km/h (0 Bft)
21.12.2010 02:00 -12,5 C 86 % 1006,2 hPa 0,0 mm 0,0 km/h (0 Bft) N 0 0 min 0 UV-I 0 W/m 0,0 km/h (0 Bft)
21.12.2010 02:10 -12,4 C 86 % 1006,1 hPa 0,0 mm 0,0 km/h (0 Bft) N 0 0 min 0 UV-I 0 W/m 0,0 km/h (0 Bft)
21.12.2010 02:20 -12,3 C 86 % 1006,0 hPa 0,0 mm 0,0 km/h (0 Bft) N 0 0 min 0 UV-I 0 W/m 0,0 km/h (0 Bft)
21.12.2010 02:30 -12,2 C 86 % 1006,0 hPa 0,0 mm 0,0 km/h (0 Bft) N 0 0 min 0 UV-I 0 W/m 0,0 km/h (0 Bft)
21.12.2010 02:40 -12,0 C 87 % 1005,9 hPa 0,0 mm 0,0 km/h (0 Bft) N 0 0 min 0 UV-I 0 W/m 0,0 km/h (0 Bft)
21.12.2010 02:50 -11,8 C 87 % 1005,9 hPa 0,0 mm 0,0 km/h (0 Bft) N 0 0 min 0 UV-I 0 W/m 0,0 km/h (0 Bft)
21.12.2010 03:00 -11,6 C 87 % 1005,9 hPa 0,0 mm 0,0 km/h (0 Bft) N 0 0 min 0 UV-I 0 W/m 0,0 km/h (0 Bft)
21.12.2010 03:10 -11,4 C 87 % 1005,8 hPa 0,0 mm 0,0 km/h (0 Bft) N 0 0 min 0 UV-I 0 W/m 0,0 km/h (0 Bft)
21.12.2010 03:20 -11,2 C 87 % 1005,8 hPa 0,0 mm 0,0 km/h (0 Bft) N 0 0 min 0 UV-I 0 W/m 0,0 km/h (0 Bft)
21.12.2010 03:30 -10,9 C 87 % 1005,6 hPa 0,0 mm 0,0 km/h (0 Bft) N 0 0 min 0 UV-I 0 W/m 0,0 km/h (0 Bft)
21.12.2010 03:40 -10,8 C 88 % 1005,4 hPa 0,0 mm 0,0 km/h (0 Bft) N 0 0 min 0 UV-I 0 W/m 0,0 km/h (0 Bft)
21.12.2010 03:50 -10,6 C 88 % 1005,0 hPa 0,0 mm 0,0 km/h (0 Bft) W-NW 292 0 min 0 UV-I 0 W/m 1,6 km/h (1 Bft)
21.12.2010 04:00 -10,5 C 88 % 1005,1 hPa 0,0 mm 0,0 km/h (0 Bft) W-NW 292 0 min 0 UV-I 0 W/m 1,6 km/h (1 Bft)
21.12.2010 04:10 -10,3 C 88 % 1005,0 hPa 0,0 mm 0,0 km/h (0 Bft) W-NW 292 0 min 0 UV-I 0 W/m 1,6 km/h (1 Bft)
21.12.2010 04:20 -10,0 C 89 % 1005,0 hPa 0,0 mm 0,0 km/h (0 Bft) W-NW 292 0 min 0 UV-I 0 W/m 1,6 km/h (1 Bft)
21.12.2010 04:30 -9,7 C 89 % 1004,9 hPa 0,0 mm 0,0 km/h (0 Bft) W-NW 292 0 min 0 UV-I 0 W/m 1,6 km/h (1 Bft)
21.12.2010 04:40 -9,3 C 89 % 1004,8 hPa 0,0 mm 0,0 km/h (0 Bft) W-NW 292 0 min 0 UV-I 0 W/m 1,6 km/h (1 Bft)
21.12.2010 04:50 -8,8 C 89 % 1004,8 hPa 0,0 mm 0,0 km/h (0 Bft) N 0 0 min 0 UV-I 0 W/m 0,0 km/h (0 Bft)
21.12.2010 05:00 -8,5 C 90 % 1004,7 hPa 0,0 mm 0,0 km/h (0 Bft) N 0 0 min 0 UV-I 0 W/m 0,0 km/h (0 Bft)
21.12.2010 05:10 -8,2 C 90 % 1004,6 hPa 0,0 mm 0,0 km/h (0 Bft) W-NW 292 0 min 0 UV-I 0 W/m 1,6 km/h (1 Bft)
21.12.2010 05:20 -7,9 C 90 % 1004,6 hPa 0,0 mm 0,0 km/h (0 Bft) W-NW 292 0 min 0 UV-I 0 W/m 1,6 km/h (1 Bft)
21.12.2010 05:30 -7,7 C 90 % 1004,4 hPa 0,0 mm 0,0 km/h (0 Bft) N 0 0 min 0 UV-I 0 W/m 0,0 km/h (0 Bft)
21.12.2010 05:40 -7,5 C 90 % 1004,4 hPa 0,0 mm 0,0 km/h (0 Bft) N 0 0 min 0 UV-I 0 W/m 0,0 km/h (0 Bft)
21.12.2010 05:50 -7,3 C 90 % 1004,5 hPa 0,0 mm 0,0 km/h (0 Bft) W-NW 292 0 min 0 UV-I 0 W/m 1,6 km/h (1 Bft)
21.12.2010 06:00 -7,2 C 90 % 1004,5 hPa 0,0 mm 0,0 km/h (0 Bft) W-NW 292 0 min 0 UV-I 0 W/m 1,6 km/h (1 Bft)
21.12.2010 06:10 -7,0 C 90 % 1004,4 hPa 0,0 mm 0,0 km/h (0 Bft) W-NW 292 0 min 0 UV-I 0 W/m 3,2 km/h (1 Bft)
21.12.2010 06:20 -6,8 C 90 % 1004,2 hPa 0,0 mm 0,0 km/h (0 Bft) NW 315 0 min 0 UV-I 0 W/m 1,6 km/h (1 Bft)
21.12.2010 06:30 -6,7 C 90 % 1004,3 hPa 0,0 mm 0,0 km/h (0 Bft) NW 315 0 min 0 UV-I 0 W/m 1,6 km/h (1 Bft)
21.12.2010 06:40 -6,6 C 90 % 1004,3 hPa 0,0 mm 0,0 km/h (0 Bft) NW 315 0 min 0 UV-I 0 W/m 1,6 km/h (1 Bft)
21.12.2010 06:50 -6,4 C 90 % 1004,2 hPa 0,0 mm 0,0 km/h (0 Bft) NW 315 0 min 0 UV-I 0 W/m 1,6 km/h (1 Bft)
21.12.2010 07:00 -6,3 C 90 % 1004,2 hPa 0,0 mm 0,0 km/h (0 Bft) NW 315 0 min 0 UV-I 0 W/m 1,6 km/h (1 Bft)
21.12.2010 07:10 -6,1 C 90 % 1004,1 hPa 0,0 mm 0,0 km/h (0 Bft) NW 315 0 min 0 UV-I 0 W/m 1,6 km/h (1 Bft)
21.12.2010 07:20 -6,0 C 90 % 1004,1 hPa 0,0 mm 0,0 km/h (0 Bft) NW 315 0 min 0 UV-I 0 W/m 1,6 km/h (1 Bft)
21.12.2010 07:30 -5,9 C 90 % 1003,9 hPa 0,0 mm 0,0 km/h (0 Bft) NW 315 0 min 0 UV-I 0 W/m 1,6 km/h (1 Bft)
21.12.2010 07:40 -5,8 C 90 % 1003,8 hPa 0,0 mm 0,0 km/h (0 Bft) NW 315 0 min 0 UV-I 0 W/m 3,2 km/h (1 Bft)
21.12.2010 07:50 -5,7 C 90 % 1003,8 hPa 0,0 mm 0,0 km/h (0 Bft) NW 315 0 min 0 UV-I 0 W/m 1,6 km/h (1 Bft)
21.12.2010 08:00 -5,5 C 90 % 1003,8 hPa 0,0 mm 0,0 km/h (0 Bft) NW 306 0 min 0 UV-I 0 W/m 0,0 km/h (0 Bft)
21.12.2010 08:10 -5,4 C 91 % 1004,0 hPa 0,0 mm 0,0 km/h (0 Bft) N 0 0 min 0 UV-I 0 W/m 0,0 km/h (0 Bft)
21.12.2010 08:20 -5,3 C 90 % 1004,0 hPa 0,0 mm 0,0 km/h (0 Bft) NW 315 0 min 0 UV-I 0 W/m 1,6 km/h (1 Bft)
21.12.2010 08:30 -5,2 C 90 % 1004,1 hPa 0,0 mm 0,0 km/h (0 Bft) N 0 0 min 0 UV-I 0 W/m 0,0 km/h (0 Bft)
21.12.2010 08:40 -5,2 C 90 % 1004,0 hPa 0,0 mm 0,0 km/h (0 Bft) N 0 0 min 0 UV-I 0 W/m 0,0 km/h (0 Bft)
21.12.2010 08:50 -5,1 C 90 % 1004,2 hPa 0,0 mm 0,0 km/h (0 Bft) NW 315 0 min 0 UV-I 7 W/m 1,6 km/h (1 Bft)
21.12.2010 09:00 -5,0 C 91 % 1004,2 hPa 0,0 mm 0,0 km/h (0 Bft) NW 315 0 min 0 UV-I 12 W/m 1,6 km/h (1 Bft)
21.12.2010 09:10 -4,9 C 91 % 1004,3 hPa 0,0 mm 0,0 km/h (0 Bft) NW 315 0 min 0 UV-I 18 W/m 1,6 km/h (1 Bft)
21.12.2010 09:20 -4,8 C 91 % 1004,3 hPa 0,0 mm 0,0 km/h (0 Bft) NW 315 0 min 0 UV-I 21 W/m 1,6 km/h (1 Bft)
21.12.2010 09:30 -4,8 C 91 % 1004,3 hPa 0,0 mm 0,0 km/h (0 Bft) NW 315 0 min 0 UV-I 28 W/m 1,6 km/h (1 Bft)
21.12.2010 09:40 -4,7 C 91 % 1004,4 hPa 0,0 mm 0,0 km/h (0 Bft) N 0 0 min 0 UV-I 32 W/m 0,0 km/h (0 Bft)
21.12.2010 09:50 -4,6 C 91 % 1004,5 hPa 0,0 mm 0,0 km/h (0 Bft) NW 315 0 min 0 UV-I 39 W/m 1,6 km/h (1 Bft)
21.12.2010 10:00 -4,5 C 91 % 1004,5 hPa 0,0 mm 0,0 km/h (0 Bft) N 0 0 min 0 UV-I 39 W/m 0,0 km/h (0 Bft)
21.12.2010 10:10 -4,4 C 91 % 1004,6 hPa 0,0 mm 0,0 km/h (0 Bft) N 0 0 min 0 UV-I 35 W/m 0,0 km/h (0 Bft)
21.12.2010 10:20 -4,2 C 91 % 1004,5 hPa 0,0 mm 0,0 km/h (0 Bft) N 0 0 min 0 UV-I 25 W/m 0,0 km/h (0 Bft)
21.12.2010 10:30 -4,1 C 91 % 1004,5 hPa 0,0 mm 0,0 km/h (0 Bft) N 0 0 min 0 UV-I 32 W/m 0,0 km/h (0 Bft)
21.12.2010 10:40 -3,9 C 91 % 1004,4 hPa 0,0 mm 0,0 km/h (0 Bft) N 0 0 min 0 UV-I 33 W/m 0,0 km/h (0 Bft)
21.12.2010 10:50 -3,9 C 91 % 1004,3 hPa 0,0 mm 0,0 km/h (0 Bft) N 0 0 min 0 UV-I 33 W/m 0,0 km/h (0 Bft)
21.12.2010 11:00 -3,8 C 91 % 1004,4 hPa 0,0 mm 0,0 km/h (0 Bft) N 0 0 min 1 UV-I 56 W/m 0,0 km/h (0 Bft)
21.12.2010 11:10 -3,8 C 91 % 1004,6 hPa 0,0 mm 0,0 km/h (0 Bft) NW 315 0 min 1 UV-I 91 W/m 1,6 km/h (1 Bft)
21.12.2010 11:20 -3,7 C 91 % 1004,5 hPa 0,0 mm 0,0 km/h (0 Bft) N 0 0 min 1 UV-I 81 W/m 0,0 km/h (0 Bft)
21.12.2010 11:30 -3,6 C 91 % 1004,5 hPa 0,0 mm 0,0 km/h (0 Bft) NW 315 0 min 1 UV-I 102 W/m 3,2 km/h (1 Bft)
21.12.2010 11:40 -3,3 C 91 % 1004,4 hPa 0,0 mm 0,0 km/h (0 Bft) NW 315 0 min 1 UV-I 105 W/m 1,6 km/h (1 Bft)
21.12.2010 11:50 -3,1 C 91 % 1004,4 hPa 0,0 mm 0,0 km/h (0 Bft) NW 315 0 min 1 UV-I 107 W/m 3,2 km/h (1 Bft)
21.12.2010 12:00 -2,7 C 92 % 1004,4 hPa 0,0 mm 0,0 km/h (0 Bft) NW 315 0 min 1 UV-I 127 W/m 3,2 km/h (1 Bft)
21.12.2010 12:10 -2,3 C 92 % 1004,5 hPa 0,0 mm 0,0 km/h (0 Bft) NW 315 0 min 1 UV-I 105 W/m 3,2 km/h (1 Bft)
21.12.2010 12:20 -2,0 C 92 % 1004,5 hPa 0,0 mm 0,0 km/h (0 Bft) NW 315 10 min 1 UV-I 183 W/m 3,2 km/h (1 Bft)
21.12.2010 12:30 -1,6 C 92 % 1004,6 hPa 0,0 mm 0,0 km/h (0 Bft) NW 315 10 min 1 UV-I 229 W/m 4,8 km/h (1 Bft)
21.12.2010 12:40 -1,1 C 92 % 1004,6 hPa 0,3 mm 1,6 km/h (1 Bft) N 360 10 min 1 UV-I 169 W/m 4,8 km/h (1 Bft)
21.12.2010 12:50 -0,7 C 92 % 1004,7 hPa 0,0 mm 1,6 km/h (1 Bft) NO 45 10 min 1 UV-I 149 W/m 6,4 km/h (2 Bft)
21.12.2010 13:00 -0,4 C 92 % 1004,7 hPa 0,0 mm 0,0 km/h (0 Bft) NO 45 0 min 1 UV-I 121 W/m 4,8 km/h (1 Bft)
21.12.2010 13:10 -0,2 C 92 % 1004,6 hPa 0,3 mm 0,0 km/h (0 Bft) NO 45 0 min 1 UV-I 104 W/m 3,2 km/h (1 Bft)
21.12.2010 13:20 -0,1 C 92 % 1004,7 hPa 0,0 mm 1,6 km/h (1 Bft) NO 45 0 min 1 UV-I 91 W/m 4,8 km/h (1 Bft)
21.12.2010 13:30 0,1 C 92 % 1004,8 hPa 0,0 mm 1,6 km/h (1 Bft) NO 45 0 min 1 UV-I 95 W/m 4,8 km/h (1 Bft)
21.12.2010 13:40 0,2 C 92 % 1004,8 hPa 0,3 mm 1,6 km/h (1 Bft) NO 45 0 min 1 UV-I 118 W/m 6,4 km/h (2 Bft)
21.12.2010 13:50 0,3 C 92 % 1004,9 hPa 0,0 mm 0,0 km/h (0 Bft) NO 45 10 min 1 UV-I 127 W/m 3,2 km/h (1 Bft)
21.12.2010 14:00 0,4 C 92 % 1004,7 hPa 0,3 mm 1,6 km/h (1 Bft) NO 45 0 min 1 UV-I 91 W/m 6,4 km/h (2 Bft)
21.12.2010 14:10 0,6 C 92 % 1004,7 hPa 0,0 mm 1,6 km/h (1 Bft) NO 45 0 min 0 UV-I 86 W/m 6,4 km/h (2 Bft)
21.12.2010 14:20 0,6 C 91 % 1004,7 hPa 0,0 mm 1,6 km/h (1 Bft) O-NO 67 10 min 0 UV-I 107 W/m 6,4 km/h (2 Bft)
21.12.2010 14:30 0,6 C 91 % 1004,7 hPa 0,0 mm 1,6 km/h (1 Bft) O-NO 67 0 min 0 UV-I 74 W/m 6,4 km/h (2 Bft)
21.12.2010 14:40 0,6 C 91 % 1004,8 hPa 0,3 mm 1,6 km/h (1 Bft) O-NO 67 0 min 0 UV-I 70 W/m 6,4 km/h (2 Bft)
21.12.2010 14:50 0,6 C 91 % 1004,8 hPa 0,0 mm 1,6 km/h (1 Bft) O-NO 67 0 min 0 UV-I 65 W/m 4,8 km/h (1 Bft)
21.12.2010 15:00 0,5 C 91 % 1004,6 hPa 0,0 mm 0,0 km/h (0 Bft) O-NO 67 10 min 0 UV-I 81 W/m 3,2 km/h (1 Bft)
21.12.2010 15:10 0,4 C 91 % 1004,7 hPa 0,0 mm 0,0 km/h (0 Bft) O-NO 67 0 min 0 UV-I 58 W/m 4,8 km/h (1 Bft)
21.12.2010 15:20 0,4 C 91 % 1004,8 hPa 0,0 mm 0,0 km/h (0 Bft) O-NO 67 0 min 0 UV-I 47 W/m 1,6 km/h (1 Bft)
21.12.2010 15:30 0,3 C 90 % 1005,0 hPa 0,0 mm 0,0 km/h (0 Bft) O-NO 67 10 min 0 UV-I 51 W/m 1,6 km/h (1 Bft)
21.12.2010 15:40 0,3 C 90 % 1005,1 hPa 0,0 mm 0,0 km/h (0 Bft) O-NO 67 10 min 0 UV-I 35 W/m 3,2 km/h (1 Bft)
21.12.2010 15:50 0,2 C 90 % 1005,3 hPa 0,0 mm 0,0 km/h (0 Bft) N 0 10 min 0 UV-I 23 W/m 0,0 km/h (0 Bft)
21.12.2010 16:00 0,1 C 89 % 1005,3 hPa 0,0 mm 0,0 km/h (0 Bft) O-NO 60 0 min 0 UV-I 6 W/m 0,0 km/h (0 Bft)
21.12.2010 16:10 0,0 C 89 % 1005,6 hPa 0,0 mm 0,0 km/h (0 Bft) N 0 0 min 0 UV-I 5 W/m 0,0 km/h (0 Bft)
21.12.2010 16:20 -0,1 C 89 % 1005,6 hPa 0,0 mm 0,0 km/h (0 Bft) O-NO 67 0 min 0 UV-I 0 W/m 3,2 km/h (1 Bft)
21.12.2010 16:30 -0,1 C 89 % 1005,7 hPa 0,0 mm 0,0 km/h (0 Bft) O-NO 67 0 min 0 UV-I 0 W/m 3,2 km/h (1 Bft)
21.12.2010 16:40 -0,2 C 89 % 1005,8 hPa 0,0 mm 0,0 km/h (0 Bft) O-NO 67 0 min 0 UV-I 0 W/m 3,2 km/h (1 Bft)
21.12.2010 16:50 -0,2 C 88 % 1005,8 hPa 0,0 mm 0,0 km/h (0 Bft) O-NO 67 0 min 0 UV-I 0 W/m 4,8 km/h (1 Bft)
21.12.2010 17:00 -0,3 C 88 % 1005,9 hPa 0,0 mm 1,6 km/h (1 Bft) O-NO 67 0 min 0 UV-I 0 W/m 4,8 km/h (1 Bft)
21.12.2010 17:10 -0,3 C 88 % 1005,8 hPa 0,3 mm 1,6 km/h (1 Bft) O-NO 67 0 min 0 UV-I 0 W/m 4,8 km/h (1 Bft)
21.12.2010 17:20 -0,4 C 88 % 1005,7 hPa 0,0 mm 0,0 km/h (0 Bft) O-NO 67 0 min 0 UV-I 0 W/m 3,2 km/h (1 Bft)
21.12.2010 17:30 -0,4 C 88 % 1005,8 hPa 0,0 mm 0,0 km/h (0 Bft) O-NO 67 0 min 0 UV-I 0 W/m 4,8 km/h (1 Bft)
21.12.2010 17:40 -0,4 C 88 % 1005,8 hPa 0,0 mm 0,0 km/h (0 Bft) O-NO 67 0 min 0 UV-I 0 W/m 3,2 km/h (1 Bft)
21.12.2010 17:50 -0,4 C 88 % 1005,5 hPa 0,0 mm 0,0 km/h (0 Bft) O-NO 67 0 min 0 UV-I 0 W/m 3,2 km/h (1 Bft)
21.12.2010 18:00 -0,4 C 88 % 1005,6 hPa 0,0 mm 1,6 km/h (1 Bft) O-NO 67 0 min 0 UV-I 0 W/m 4,8 km/h (1 Bft)
21.12.2010 18:10 -0,5 C 88 % 1005,5 hPa 0,0 mm 1,6 km/h (1 Bft) O-NO 67 0 min 0 UV-I 0 W/m 4,8 km/h (1 Bft)
21.12.2010 18:20 -0,5 C 88 % 1005,4 hPa 0,0 mm 0,0 km/h (0 Bft) O-NO 67 0 min 0 UV-I 0 W/m 4,8 km/h (1 Bft)
21.12.2010 18:30 -0,5 C 88 % 1005,5 hPa 0,0 mm 1,6 km/h (1 Bft) O-NO 67 0 min 0 UV-I 0 W/m 6,4 km/h (2 Bft)
21.12.2010 18:40 -0,6 C 88 % 1005,7 hPa 0,0 mm 1,6 km/h (1 Bft) O-NO 67 0 min 0 UV-I 0 W/m 6,4 km/h (2 Bft)
21.12.2010 18:50 -0,6 C 88 % 1005,7 hPa 0,0 mm 3,2 km/h (1 Bft) O-NO 67 0 min 0 UV-I 0 W/m 6,4 km/h (2 Bft)
21.12.2010 19:00 -0,6 C 89 % 1005,7 hPa 0,0 mm 1,6 km/h (1 Bft) O-NO 67 0 min 0 UV-I 0 W/m 6,4 km/h (2 Bft)
21.12.2010 19:10 -0,6 C 89 % 1005,6 hPa 0,0 mm 1,6 km/h (1 Bft) O-NO 67 0 min 0 UV-I 0 W/m 6,4 km/h (2 Bft)
21.12.2010 19:20 -0,6 C 89 % 1005,7 hPa 0,0 mm 3,2 km/h (1 Bft) O-NO 67 0 min 0 UV-I 0 W/m 8,0 km/h (2 Bft)
21.12.2010 19:30 -0,6 C 89 % 1005,8 hPa 0,0 mm 3,2 km/h (1 Bft) O 90 0 min 0 UV-I 0 W/m 9,7 km/h (2 Bft)
21.12.2010 19:40 -0,6 C 89 % 1006,0 hPa 0,0 mm 1,6 km/h (1 Bft) O 90 0 min 0 UV-I 0 W/m 8,0 km/h (2 Bft)
21.12.2010 19:50 -0,6 C 89 % 1005,9 hPa 0,0 mm 1,6 km/h (1 Bft) O 90 0 min 0 UV-I 0 W/m 4,8 km/h (1 Bft)
21.12.2010 20:00 -0,6 C 89 % 1006,1 hPa 0,0 mm 3,2 km/h (1 Bft) O 90 0 min 0 UV-I 0 W/m 9,7 km/h (2 Bft)
21.12.2010 20:10 -0,6 C 89 % 1006,1 hPa 0,0 mm 3,2 km/h (1 Bft) O 90 0 min 0 UV-I 0 W/m 11,3 km/h (2 Bft)
21.12.2010 20:20 -0,6 C 89 % 1006,1 hPa 0,0 mm 4,8 km/h (1 Bft) O 90 0 min 0 UV-I 0 W/m 9,7 km/h (2 Bft)
21.12.2010 20:30 -0,6 C 89 % 1006,1 hPa 0,0 mm 3,2 km/h (1 Bft) O 90 0 min 0 UV-I 0 W/m 9,7 km/h (2 Bft)
21.12.2010 20:40 -0,5 C 90 % 1006,1 hPa 0,0 mm 4,8 km/h (1 Bft) O-SO 112 0 min 0 UV-I 0 W/m 11,3 km/h (2 Bft)
21.12.2010 20:50 -0,4 C 90 % 1006,0 hPa 0,0 mm 3,2 km/h (1 Bft) O-SO 112 0 min 0 UV-I 0 W/m 8,0 km/h (2 Bft)
21.12.2010 21:00 -0,4 C 90 % 1006,0 hPa 0,0 mm 1,6 km/h (1 Bft) O-SO 112 0 min 0 UV-I 0 W/m 8,0 km/h (2 Bft)
21.12.2010 21:10 -0,4 C 90 % 1006,0 hPa 0,0 mm 1,6 km/h (1 Bft) O-SO 112 0 min 0 UV-I 0 W/m 6,4 km/h (2 Bft)
21.12.2010 21:20 -0,4 C 90 % 1005,8 hPa 0,0 mm 0,0 km/h (0 Bft) O-SO 112 0 min 0 UV-I 0 W/m 4,8 km/h (1 Bft)
21.12.2010 21:30 -0,3 C 90 % 1005,9 hPa 0,0 mm 1,6 km/h (1 Bft) O-SO 112 0 min 0 UV-I 0 W/m 9,7 km/h (2 Bft)
21.12.2010 21:40 -0,3 C 90 % 1005,9 hPa 0,3 mm 1,6 km/h (1 Bft) O-SO 112 0 min 0 UV-I 0 W/m 8,0 km/h (2 Bft)
21.12.2010 21:50 -0,3 C 90 % 1005,8 hPa 0,0 mm 3,2 km/h (1 Bft) O-SO 112 0 min 0 UV-I 0 W/m 14,5 km/h (3 Bft)
21.12.2010 22:00 -0,2 C 90 % 1005,9 hPa 0,0 mm 3,2 km/h (1 Bft) O-SO 112 0 min 0 UV-I 0 W/m 11,3 km/h (2 Bft)
21.12.2010 22:10 -0,2 C 90 % 1005,9 hPa 0,0 mm 1,6 km/h (1 Bft) O 90 0 min 0 UV-I 0 W/m 9,7 km/h (2 Bft)
21.12.2010 22:20 -0,2 C 90 % 1005,9 hPa 0,0 mm 1,6 km/h (1 Bft) O-SO 112 0 min 0 UV-I 0 W/m 8,0 km/h (2 Bft)
21.12.2010 22:30 -0,2 C 91 % 1005,9 hPa 0,0 mm 1,6 km/h (1 Bft) O-SO 112 0 min 0 UV-I 0 W/m 6,4 km/h (2 Bft)
21.12.2010 22:40 -0,2 C 90 % 1005,8 hPa 0,0 mm 1,6 km/h (1 Bft) O-SO 112 0 min 0 UV-I 0 W/m 8,0 km/h (2 Bft)
21.12.2010 22:50 -0,2 C 90 % 1005,9 hPa 0,0 mm 1,6 km/h (1 Bft) O-SO 112 0 min 0 UV-I 0 W/m 4,8 km/h (1 Bft)
21.12.2010 23:00 -0,2 C 91 % 1006,0 hPa 0,0 mm 1,6 km/h (1 Bft) O-SO 112 0 min 0 UV-I 0 W/m 6,4 km/h (2 Bft)
21.12.2010 23:10 -0,1 C 91 % 1005,8 hPa 0,0 mm 1,6 km/h (1 Bft) O-SO 112 0 min 0 UV-I 0 W/m 4,8 km/h (1 Bft)
21.12.2010 23:20 -0,1 C 91 % 1006,0 hPa 0,0 mm 1,6 km/h (1 Bft) O-SO 112 0 min 0 UV-I 0 W/m 4,8 km/h (1 Bft)
21.12.2010 23:30 -0,1 C 91 % 1005,9 hPa 0,0 mm 3,2 km/h (1 Bft) O-SO 112 0 min 0 UV-I 0 W/m 6,4 km/h (2 Bft)
21.12.2010 23:40 -0,1 C 91 % 1005,9 hPa 0,0 mm 1,6 km/h (1 Bft) O-SO 112 0 min 0 UV-I 0 W/m 6,4 km/h (2 Bft)
21.12.2010 23:50 -0,1 C 91 % 1005,8 hPa 0,0 mm 3,2 km/h (1 Bft) O-SO 112 0 min 0 UV-I 0 W/m 8,0 km/h (2 Bft)
_ Min-Zeit 01:10 00:00 07:40 - 00:00 - - - - - 00:00
Minimum _ -12,7 C 84 % 1003,8 hPa - 0,0 km/h (0 Bft) - - - - - 0,0 km/h (0 Bft)
_ Max-Zeit 14:10 12:00 00:00 12:40 20:20 - - 12:20 12:20 12:30 21:50
Maximum _ 0,6 C 92 % 1007,3 hPa 0,3 mm 4,8 km/h
O (1 Bft)
- - 10 min 1 UV-I 229 W/m 14,5 km/h
O-SO (3 Bft)
Durchschnitt _ -4,2 C 89 % 1005,2 hPa #1,8 mm 0,7 km/h (0 Bft) O-SO - #1:40 h 1 UV-I 74 W/m 3,3 km/h (1 Bft)